Detall de PIREP

Printer-friendly versionPDF version

[2014/05/25 08:27:00]
Flight IATA:CT2204
Pilot Number:044
Company ICAO:CAT
Aircraft Type:F100/A
PAX:100
Aircraft Registration:PFJ
Departing Airport: LFMP
Destination Airport: LFRB
Alternate Airport:LFBD
Online: VATSIM
Route:N0350F180 ORBIL G36 GAI G39 SECHE/N0450F320 UN863 TIRAV UN490 TERPO UM616 KORER/N0350F180 R66 LENSU
Flight Level:F320
No Slew and time accel
No pause
Crash detect
Detect pilot in Cockpit between each 30 and 45 minutes
08:27 Zero fuel Weight: 80826 Lbs, Fuel Weight: 12231 Lbs
08:27 VATSIM:LFMP 250800Z 08004KT 020V170 9999 FEW050 BKN120 19/11 Q1016 NOSIG
08:27 VATSIM:LFRB 250800Z 20011KT 9999 SCT024 SCT034 12/08 Q1016 NOSIG
08:31 Parking Brakes off
08:40 Take-off
08:40 Take off Weight: 92488 Lbs
08:40 Wind: 061º @ 004 Knots Heading: 329º
08:40 POS N42º 44´ 57´´ E002º 51´ 55´´
08:40 Gear Up: 174 Knots
08:40 Flaps:1 at 174 Knots
08:40 Flaps:0 at 177 Knots
08:52 Flaps:4 at 283 Knots
08:52 Flaps:3 at 281 Knots
08:52 Flaps:0 at 279 Knots
08:55 Wind:136º@014 Knots Heading: 328º Ground Speed: 379 Knots Altitude 18116 ft
09:06 TOC
09:06 Fuel Weight: 8881 Lb
09:10 Wind:268º@014 Knots Heading: 341º Ground Speed: 433 Knots Altitude 32109 ft
09:25 Wind:079º@027 Knots Heading: 326º Ground Speed: 449 Knots Altitude 32109 ft
09:28 TOD
09:28 Fuel Weight: 7171 Lb
09:40 Wind:201º@013 Knots Heading: 307º Ground Speed: 329 Knots Altitude 11633 ft
09:49 Flaps:4 at 251 Knots
09:49 Flaps:0 at 247 Knots
09:55 Wind:233º@016 Knots Heading: 295º Ground Speed: 265 Knots Altitude 5255 ft
09:59 Flaps:1 at 191 Knots
09:59 Flaps:2 at 188 Knots
10:00 Flaps:3 at 175 Knots
10:00 Gear Down: 152 Knots
10:02 Flaps:4 at 141 Knots
10:04 TouchDown:Rate -597 ft/min Speed: 110 Knots
10:04 VATSIM:LFRB 250930Z 21013KT 9999 SCT025 SCT064 13/07 Q1016 NOSIG
10:04 Land
10:04 Wind:219º@012 Knots
10:04 Heading: 254º
10:04 Flight Duration: 01:24
10:04 Landing Weight: 86301 Lbs
10:04 POS N48º 26´ 56´´ W004º 24´ 47´´
10:06 Parking brakes on
10:06 Block to Block Duration: 01:35
10:06 Final Fuel: 5394 Lbls
10:06 Spent Fuel: 6836 Lbls
10:06 Flight Length: 477 NM
10:06 TOD Land Length: 173 NM

Exportar CSV

Powered by Drupal - Modified by Danger4k